Time;durP1;ratioP1;P1;durP2;ratioP2;P2;SDS_P1;SDS_P2;PMS_P1;PMS_P2;Temp;Humidity;BMP_temperature;BMP_pressure;BME280_temperature;BME280_humidity;BME280_pressure;Samples;Min_cycle;Max_cycle;Signal;HPM_P1;HPM_P2
2022/07/09 00:02:09;;;;;;;1.13;1.13;;;13.30;97.40;;;;;;5054242;28;20256;-70
2022/07/09 00:04:35;;;;;;;0.47;0.47;;;13.30;96.80;;;;;;5054108;28;20278;-69
2022/07/09 00:07:01;;;;;;;0.60;0.60;;;13.20;97.20;;;;;;5054087;28;20236;-69
2022/07/09 00:09:26;;;;;;;1.20;1.10;;;13.30;97.30;;;;;;5053794;28;20255;-69
2022/07/09 00:11:52;;;;;;;0.60;0.60;;;13.30;97.60;;;;;;5053737;28;20202;-69
2022/07/09 00:14:19;;;;;;;1.70;1.17;;;13.30;97.70;;;;;;5054024;28;20221;-70
2022/07/09 00:16:44;;;;;;;0.37;0.37;;;13.20;97.40;;;;;;5053825;28;20435;-70
2022/07/09 00:19:10;;;;;;;0.40;0.40;;;13.20;97.30;;;;;;5053616;28;20427;-70
2022/07/09 00:21:36;;;;;;;0.50;0.40;;;13.20;96.90;;;;;;5053736;28;20174;-70
2022/07/09 00:24:01;;;;;;;0.33;0.33;;;13.20;96.80;;;;;;5053732;28;20188;-69
2022/07/09 00:26:27;;;;;;;0.50;0.43;;;13.20;96.40;;;;;;5053764;28;20198;-70
2022/07/09 00:28:53;;;;;;;1.33;0.87;;;13.10;96.30;;;;;;5053521;28;20176;-70
2022/07/09 00:31:18;;;;;;;0.70;0.70;;;13.10;95.90;;;;;;5053741;28;20697;-69
2022/07/09 00:33:44;;;;;;;0.40;0.40;;;13.10;96.10;;;;;;5053682;28;20168;-69
2022/07/09 00:36:09;;;;;;;0.60;0.60;;;13.20;96.00;;;;;;5053280;28;20513;-70
2022/07/09 00:38:35;;;;;;;0.50;0.50;;;13.20;96.20;;;;;;5053311;28;20212;-69
2022/07/09 00:41:01;;;;;;;0.40;0.40;;;13.20;96.50;;;;;;5053574;28;20228;-70
2022/07/09 00:43:27;;;;;;;0.40;0.40;;;13.10;96.20;;;;;;5053612;28;20702;-70
2022/07/09 00:45:52;;;;;;;0.97;0.50;;;13.10;96.40;;;;;;5053298;28;20467;-69
2022/07/09 00:48:19;;;;;;;0.43;0.40;;;13.10;96.30;;;;;;5053239;28;20183;-70
2022/07/09 00:50:45;;;;;;;0.37;0.37;;;13.10;96.30;;;;;;5053195;28;20196;-70
2022/07/09 00:53:14;;;;;;;0.40;0.40;;;13.00;95.90;;;;;;5053372;28;20959;-68
2022/07/09 00:55:40;;;;;;;0.43;0.40;;;12.90;95.60;;;;;;5053505;28;20406;-70
2022/07/09 00:58:08;;;;;;;1.33;1.33;;;12.90;96.30;;;;;;5053223;28;20411;-70
2022/07/09 01:00:35;;;;;;;0.90;0.90;;;12.90;96.40;;;;;;5054771;28;20410;-69
2022/07/09 01:03:01;;;;;;;0.40;0.40;;;12.80;96.60;;;;;;5056163;28;20426;-70
2022/07/09 01:05:27;;;;;;;2.30;1.27;;;12.90;96.50;;;;;;5057613;28;20423;-69
2022/07/09 01:07:53;;;;;;;0.80;0.80;;;12.90;96.40;;;;;;5057278;28;20433;-69
2022/07/09 01:10:19;;;;;;;1.17;1.17;;;12.90;96.40;;;;;;5057217;28;20191;-69
2022/07/09 01:12:45;;;;;;;0.60;0.60;;;12.80;96.80;;;;;;5057415;28;20399;-69
2022/07/09 01:15:11;;;;;;;1.57;1.13;;;12.90;96.70;;;;;;5057325;28;20407;-69
2022/07/09 01:17:40;;;;;;;13.80;1.90;;;12.80;96.90;;;;;;5057098;28;20431;-70
2022/07/09 01:20:07;;;;;;;0.53;0.53;;;12.80;96.60;;;;;;5056936;28;20179;-69
2022/07/09 01:22:34;;;;;;;1.00;1.00;;;12.80;96.60;;;;;;5056928;28;20905;-69
2022/07/09 01:25:01;;;;;;;0.50;0.50;;;12.70;96.70;;;;;;5057062;28;20471;-70
2022/07/09 01:27:26;;;;;;;0.40;0.40;;;12.80;96.90;;;;;;5056872;28;20433;-69
2022/07/09 01:29:52;;;;;;;0.40;0.40;;;12.70;97.00;;;;;;5056662;28;20413;-69
2022/07/09 01:32:18;;;;;;;0.40;0.40;;;12.70;97.10;;;;;;5057064;28;20175;-69
2022/07/09 01:34:43;;;;;;;0.50;0.50;;;12.60;97.20;;;;;;5056870;28;20620;-70
2022/07/09 01:37:09;;;;;;;1.20;0.73;;;12.60;97.30;;;;;;5056846;28;20214;-71
2022/07/09 01:39:35;;;;;;;0.63;0.63;;;12.50;97.70;;;;;;5056733;28;20171;-69
2022/07/09 01:42:00;;;;;;;0.90;0.90;;;12.40;97.50;;;;;;5056905;28;20217;-70
2022/07/09 01:44:26;;;;;;;0.80;0.80;;;12.30;97.70;;;;;;5056736;28;20404;-69
2022/07/09 01:46:52;;;;;;;0.73;0.73;;;12.30;97.60;;;;;;5056790;28;20190;-70
2022/07/09 01:49:18;;;;;;;1.77;0.87;;;12.30;97.80;;;;;;5056559;28;20763;-70
2022/07/09 01:51:43;;;;;;;0.67;0.67;;;12.20;97.80;;;;;;5056691;28;20205;-70
2022/07/09 01:54:09;;;;;;;0.57;0.57;;;12.30;98.10;;;;;;5056796;28;20231;-69
2022/07/09 01:56:35;;;;;;;1.33;1.23;;;12.30;97.90;;;;;;5056478;28;20182;-69
2022/07/09 01:59:01;;;;;;;0.60;0.60;;;12.30;98.60;;;;;;5056167;28;20244;-70
2022/07/09 02:01:27;;;;;;;0.67;0.67;;;12.30;98.50;;;;;;5056569;28;20174;-69
2022/07/09 02:03:53;;;;;;;0.57;0.57;;;12.30;98.40;;;;;;5056245;28;20415;-70
2022/07/09 02:06:18;;;;;;;0.40;0.40;;;12.20;98.30;;;;;;5056563;28;20459;-70
2022/07/09 02:08:45;;;;;;;0.50;0.50;;;12.20;98.60;;;;;;5056089;28;20194;-69
2022/07/09 02:11:10;;;;;;;0.63;0.50;;;12.20;98.60;;;;;;5055656;28;20193;-70
2022/07/09 02:13:36;;;;;;;0.80;0.80;;;12.10;98.70;;;;;;5055453;28;20495;-70
2022/07/09 02:16:02;;;;;;;0.50;0.50;;;12.10;98.80;;;;;;5056036;28;20179;-70
2022/07/09 02:18:28;;;;;;;0.80;0.60;;;12.00;98.90;;;;;;5055900;28;20451;-70
2022/07/09 02:20:55;;;;;;;0.50;0.50;;;12.00;99.00;;;;;;5056202;28;20487;-70
2022/07/09 02:23:22;;;;;;;1.70;1.50;;;12.00;98.90;;;;;;5054585;28;20861;-70
2022/07/09 02:25:48;;;;;;;1.07;0.97;;;12.00;99.00;;;;;;5055984;28;20471;-70
2022/07/09 02:28:13;;;;;;;1.07;0.90;;;12.00;99.10;;;;;;5055679;28;20775;-69
2022/07/09 02:30:39;;;;;;;0.50;0.50;;;12.00;99.00;;;;;;5055732;28;20647;-69
2022/07/09 02:33:05;;;;;;;1.23;1.23;;;12.00;99.10;;;;;;5055816;28;20169;-69
2022/07/09 02:35:31;;;;;;;4.63;0.87;;;12.00;99.00;;;;;;5055820;28;20576;-70
2022/07/09 02:37:56;;;;;;;0.60;0.60;;;12.00;99.20;;;;;;5055413;28;20448;-69
2022/07/09 02:40:22;;;;;;;1.37;1.27;;;11.90;99.30;;;;;;5055638;28;20968;-69
2022/07/09 02:42:48;;;;;;;0.90;0.70;;;11.90;99.30;;;;;;5055458;28;20265;-69
2022/07/09 02:45:13;;;;;;;0.50;0.50;;;12.00;99.10;;;;;;5055752;28;20208;-70
2022/07/09 02:47:39;;;;;;;1.37;1.37;;;11.90;99.20;;;;;;5055424;28;20194;-69
2022/07/09 02:50:05;;;;;;;0.67;0.67;;;11.90;99.00;;;;;;5055042;28;20178;-69
2022/07/09 02:52:31;;;;;;;0.52;0.52;;;11.80;99.10;;;;;;5055470;28;20162;-70
2022/07/09 02:54:57;;;;;;;0.53;0.53;;;11.70;99.50;;;;;;5054335;28;20182;-70
2022/07/09 02:57:22;;;;;;;0.40;0.40;;;11.70;99.60;;;;;;5055195;28;20186;-71
2022/07/09 02:59:48;;;;;;;1.33;1.33;;;11.60;99.50;;;;;;5055091;28;20174;-70
2022/07/09 03:02:13;;;;;;;2.83;1.17;;;11.60;99.80;;;;;;5055244;28;20181;-71
2022/07/09 03:04:39;;;;;;;0.67;0.60;;;11.50;99.80;;;;;;5055327;28;20626;-71
2022/07/09 03:07:05;;;;;;;0.40;0.40;;;11.60;99.90;;;;;;5055145;28;20231;-71
2022/07/09 03:09:30;;;;;;;0.47;0.47;;;11.50;99.90;;;;;;5054896;28;20170;-70
2022/07/09 03:11:56;;;;;;;0.87;0.87;;;11.50;99.90;;;;;;5055105;28;20281;-69
2022/07/09 03:23:41;;;;;;;0.60;0.60;;;13.10;97.60;;;;;;5014487;28;20457;-71
2022/07/09 03:26:07;;;;;;;0.40;0.40;;;12.80;97.30;;;;;;5013847;28;20872;-70
2022/07/09 03:28:33;;;;;;;0.50;0.50;;;12.50;97.50;;;;;;5014666;28;20663;-71
2022/07/09 03:31:00;;;;;;;0.50;0.50;;;12.30;98.10;;;;;;5015362;28;20446;-71
2022/07/09 03:33:25;;;;;;;1.50;1.00;;;12.10;98.30;;;;;;5015013;28;20251;-71
2022/07/09 03:35:52;;;;;;;0.40;0.40;;;12.00;98.60;;;;;;5015568;28;20468;-72
2022/07/09 03:38:18;;;;;;;0.63;0.60;;;11.90;99.10;;;;;;5013526;28;20290;-71
2022/07/09 03:40:44;;;;;;;0.40;0.40;;;11.80;99.40;;;;;;5014711;28;20255;-71
2022/07/09 03:43:09;;;;;;;0.60;0.60;;;11.70;99.60;;;;;;5013470;28;20669;-71
2022/07/09 03:45:35;;;;;;;0.30;0.30;;;11.60;99.60;;;;;;5013959;28;20682;-70
2022/07/09 03:48:00;;;;;;;7.67;0.97;;;11.60;99.80;;;;;;5014495;28;20195;-71
2022/07/09 03:50:26;;;;;;;0.97;0.97;;;11.50;99.90;;;;;;5014707;28;20192;-71
2022/07/09 03:52:52;;;;;;;0.60;0.60;;;11.50;99.90;;;;;;5014455;28;20176;-71
2022/07/09 03:55:17;;;;;;;0.50;0.50;;;11.50;99.90;;;;;;5014627;28;20648;-71
2022/07/09 03:57:43;;;;;;;1.70;1.70;;;11.50;99.90;;;;;;5014292;28;20191;-71
2022/07/09 04:00:09;;;;;;;0.30;0.30;;;11.50;99.90;;;;;;5014611;28;20203;-71
2022/07/09 04:02:34;;;;;;;0.30;0.30;;;11.50;99.90;;;;;;5014670;28;20258;-71
2022/07/09 04:05:00;;;;;;;0.53;0.53;;;11.40;99.90;;;;;;5014516;28;20403;-71
2022/07/09 04:07:26;;;;;;;0.50;0.50;;;11.40;99.90;;;;;;5014154;28;20273;-71
2022/07/09 04:09:55;;;;;;;0.40;0.40;;;11.40;99.90;;;;;;5014510;28;20687;-71
2022/07/09 04:12:21;;;;;;;1.40;0.65;;;11.50;99.90;;;;;;5014533;28;20413;-71
2022/07/09 04:14:47;;;;;;;0.70;0.70;;;11.40;99.90;;;;;;5014361;28;20168;-71
2022/07/09 04:17:12;;;;;;;0.40;0.40;;;11.50;99.90;;;;;;5014160;28;20187;-71
2022/07/09 04:19:38;;;;;;;0.40;0.40;;;11.50;99.90;;;;;;5014124;28;20168;-71
2022/07/09 04:22:04;;;;;;;11.10;1.53;;;11.60;99.90;;;;;;5014353;28;20175;-70
2022/07/09 04:24:30;;;;;;;0.73;0.73;;;11.60;99.90;;;;;;5012722;28;20655;-70
2022/07/09 04:26:56;;;;;;;0.47;0.47;;;11.70;99.90;;;;;;5014077;28;20199;-70
2022/07/09 04:29:22;;;;;;;1.40;1.40;;;11.70;99.90;;;;;;5014348;28;20406;-70
2022/07/09 04:31:48;;;;;;;0.40;0.40;;;11.70;99.90;;;;;;5014130;28;20819;-71
2022/07/09 04:34:13;;;;;;;0.30;0.30;;;11.80;99.90;;;;;;5013895;28;20548;-69
2022/07/09 04:36:39;;;;;;;0.50;0.40;;;12.10;99.90;;;;;;5013599;28;20416;-70
2022/07/09 04:39:05;;;;;;;0.60;0.60;;;12.60;99.70;;;;;;5013661;28;20188;-71
2022/07/09 04:41:31;;;;;;;1.00;1.00;;;13.30;98.50;;;;;;5013833;28;20177;-70
2022/07/09 04:43:56;;;;;;;0.60;0.60;;;13.90;97.70;;;;;;5013966;28;20211;-70
2022/07/09 04:46:22;;;;;;;0.50;0.50;;;14.80;96.30;;;;;;5013840;28;20411;-70
2022/07/09 04:48:51;;;;;;;0.60;0.60;;;15.50;94.90;;;;;;5013527;28;20253;-71
2022/07/09 04:51:16;;;;;;;0.60;0.60;;;15.80;93.30;;;;;;5013741;28;20571;-71
2022/07/09 04:53:42;;;;;;;0.77;0.57;;;15.80;92.30;;;;;;5013809;28;20399;-71
2022/07/09 04:56:08;;;;;;;0.40;0.40;;;15.50;92.60;;;;;;5013788;28;20573;-69
2022/07/09 04:58:34;;;;;;;0.93;0.93;;;15.40;93.10;;;;;;5013470;28;20191;-71
2022/07/09 05:01:00;;;;;;;0.43;0.43;;;15.40;93.70;;;;;;5013843;28;20545;-71
2022/07/09 05:03:25;;;;;;;2.50;0.93;;;15.60;93.20;;;;;;5013827;28;20898;-71
2022/07/09 05:05:52;;;;;;;0.47;0.47;;;16.20;92.20;;;;;;5012832;28;20251;-67
2022/07/09 05:08:18;;;;;;;1.00;1.00;;;16.90;91.60;;;;;;5013606;28;20198;-69
2022/07/09 05:10:46;;;;;;;0.83;0.83;;;17.50;90.30;;;;;;5013505;28;20979;-68
2022/07/09 05:13:12;;;;;;;1.13;0.70;;;17.90;88.50;;;;;;5013545;28;20410;-68
2022/07/09 05:15:38;;;;;;;0.60;0.60;;;17.90;89.50;;;;;;5013518;28;20406;-67
2022/07/09 05:18:04;;;;;;;0.80;0.77;;;18.10;85.70;;;;;;5013088;28;20436;-67
2022/07/09 05:20:29;;;;;;;0.80;0.80;;;18.10;85.90;;;;;;5013796;28;20649;-70
2022/07/09 05:22:55;;;;;;;0.60;0.60;;;17.70;89.40;;;;;;5013729;28;20173;-70
2022/07/09 05:25:21;;;;;;;0.53;0.53;;;17.60;87.30;;;;;;5013422;28;20184;-70
2022/07/09 05:27:47;;;;;;;0.50;0.50;;;17.60;88.70;;;;;;5013264;28;20279;-70
2022/07/09 05:30:14;;;;;;;0.70;0.70;;;17.70;89.00;;;;;;5013559;28;20200;-70
2022/07/09 05:32:41;;;;;;;1.67;0.80;;;18.00;88.60;;;;;;5013393;28;20399;-70
2022/07/09 05:35:07;;;;;;;0.53;0.50;;;18.10;87.50;;;;;;5013447;28;20759;-70
2022/07/09 05:37:33;;;;;;;0.47;0.47;;;18.00;89.10;;;;;;5013169;28;20473;-70
2022/07/09 05:40:00;;;;;;;0.40;0.40;;;17.90;86.80;;;;;;5013445;28;20438;-70
2022/07/09 05:42:25;;;;;;;0.57;0.50;;;17.90;86.70;;;;;;5013326;28;20936;-70
2022/07/09 05:44:51;;;;;;;0.50;0.50;;;17.60;87.10;;;;;;5013437;28;20533;-70
2022/07/09 05:47:17;;;;;;;1.83;1.00;;;17.60;88.10;;;;;;5015351;28;20647;-70
2022/07/09 05:49:42;;;;;;;0.60;0.43;;;17.60;89.10;;;;;;5017140;28;20168;-70
2022/07/09 05:52:08;;;;;;;0.50;0.50;;;17.70;90.30;;;;;;5016887;28;20455;-70
2022/07/09 05:54:34;;;;;;;2.07;1.87;;;17.80;90.20;;;;;;5015676;28;20174;-70
2022/07/09 05:56:59;;;;;;;4.60;1.20;;;18.10;90.10;;;;;;5016701;28;20500;-70
2022/07/09 05:59:25;;;;;;;0.70;0.60;;;18.40;90.20;;;;;;5016910;28;20229;-70
2022/07/09 06:01:51;;;;;;;0.40;0.40;;;18.60;89.10;;;;;;5016650;28;20171;-70
2022/07/09 06:04:16;;;;;;;0.47;0.47;;;18.60;89.00;;;;;;5016673;28;20178;-70
2022/07/09 06:06:42;;;;;;;0.30;0.30;;;18.70;89.80;;;;;;5016683;28;20181;-70
2022/07/09 06:09:08;;;;;;;0.53;0.53;;;18.80;85.00;;;;;;5016440;28;20194;-70
2022/07/09 06:11:34;;;;;;;0.57;0.57;;;18.80;84.70;;;;;;5016768;28;20227;-70
2022/07/09 06:14:00;;;;;;;0.50;0.50;;;18.90;84.40;;;;;;5016706;28;20167;-70
2022/07/09 06:16:25;;;;;;;0.43;0.43;;;19.40;86.60;;;;;;5016394;28;20847;-70
2022/07/09 06:18:51;;;;;;;0.63;0.63;;;20.20;85.40;;;;;;5016013;28;20696;-71
2022/07/09 06:21:16;;;;;;;0.53;0.53;;;21.40;83.10;;;;;;5016369;28;20648;-70
2022/07/09 06:23:42;;;;;;;0.43;0.43;;;23.00;80.80;;;;;;5016423;28;20172;-71
2022/07/09 06:26:08;;;;;;;0.40;0.40;;;25.10;74.60;;;;;;5016196;28;20183;-71
2022/07/09 06:28:36;;;;;;;0.40;0.40;;;27.30;68.70;;;;;;5015794;28;20192;-71
2022/07/09 06:31:02;;;;;;;1.10;0.53;;;29.10;59.00;;;;;;5016105;28;20534;-72
2022/07/09 06:33:28;;;;;;;0.40;0.40;;;30.30;54.00;;;;;;5016129;28;20525;-71
2022/07/09 06:35:53;;;;;;;0.37;0.37;;;30.70;45.10;;;;;;5016147;28;20531;-71
2022/07/09 06:38:19;;;;;;;0.30;0.30;;;30.10;46.80;;;;;;5015901;28;20278;-71
2022/07/09 06:40:45;;;;;;;0.53;0.53;;;30.40;47.70;;;;;;5016025;28;20222;-71
2022/07/09 06:43:12;;;;;;;0.40;0.40;;;30.30;45.70;;;;;;5015875;28;20291;-71
2022/07/09 06:45:38;;;;;;;0.40;0.40;;;30.30;45.90;;;;;;5016127;28;20167;-71
2022/07/09 06:48:04;;;;;;;0.93;0.50;;;29.50;44.20;;;;;;5015652;28;20426;-71
2022/07/09 06:50:29;;;;;;;0.50;0.50;;;28.80;47.50;;;;;;5014544;28;20461;-71
2022/07/09 06:52:55;;;;;;;0.40;0.40;;;28.40;46.20;;;;;;5015449;28;20495;-71
2022/07/09 06:55:21;;;;;;;0.40;0.40;;;28.40;47.00;;;;;;5015915;28;20167;-71
2022/07/09 06:57:47;;;;;;;0.40;0.40;;;29.20;46.70;;;;;;5014810;28;20192;-72
2022/07/09 07:00:13;;;;;;;0.70;0.50;;;30.20;47.00;;;;;;5015733;28;20968;-71
2022/07/09 07:02:39;;;;;;;0.40;0.40;;;31.00;40.90;;;;;;5015811;28;20178;-71
2022/07/09 07:05:05;;;;;;;0.40;0.30;;;31.30;41.00;;;;;;5015618;28;20410;-71
2022/07/09 07:07:31;;;;;;;1.60;0.50;;;32.30;39.90;;;;;;5015324;28;20202;-71
2022/07/09 07:09:57;;;;;;;0.40;0.40;;;32.80;38.00;;;;;;5015565;28;20406;-70
2022/07/09 07:12:23;;;;;;;0.50;0.50;;;32.40;36.90;;;;;;5015518;28;20647;-71
2022/07/09 07:14:48;;;;;;;0.50;0.50;;;32.20;39.30;;;;;;5015330;28;20510;-71
2022/07/09 07:17:14;;;;;;;0.50;0.40;;;31.10;38.90;;;;;;5015254;28;20251;-71
2022/07/09 07:19:39;;;;;;;0.40;0.40;;;30.60;38.80;;;;;;5015175;28;20587;-71
2022/07/09 07:22:05;;;;;;;0.40;0.40;;;30.30;38.00;;;;;;5014090;28;20258;-71
2022/07/09 07:24:31;;;;;;;0.43;0.43;;;29.80;39.30;;;;;;5015133;28;20274;-71
2022/07/09 07:26:57;;;;;;;0.60;0.50;;;30.00;39.60;;;;;;5015099;28;20544;-71
2022/07/09 07:29:23;;;;;;;0.40;0.40;;;30.50;40.80;;;;;;5015061;28;20204;-72
2022/07/09 07:31:49;;;;;;;0.50;0.40;;;30.70;38.90;;;;;;5015000;28;20454;-71
2022/07/09 07:34:15;;;;;;;0.50;0.40;;;31.30;38.40;;;;;;5015061;28;20490;-71
2022/07/09 07:36:40;;;;;;;0.73;0.57;;;31.70;38.90;;;;;;5015369;28;20164;-71
2022/07/09 07:39:06;;;;;;;0.50;0.50;;;31.90;37.50;;;;;;5014817;28;20200;-71
2022/07/09 07:41:32;;;;;;;2.50;0.90;;;32.20;37.00;;;;;;5014983;28;20176;-71
2022/07/09 07:43:58;;;;;;;0.40;0.40;;;32.50;36.20;;;;;;5015023;28;20187;-71
2022/07/09 07:46:23;;;;;;;0.40;0.30;;;33.30;35.30;;;;;;5014799;28;20225;-72
2022/07/09 07:48:50;;;;;;;0.40;0.40;;;33.90;34.90;;;;;;5014554;28;20241;-72
2022/07/09 07:51:16;;;;;;;0.80;0.70;;;33.40;35.70;;;;;;5014874;28;20222;-72
2022/07/09 07:53:42;;;;;;;0.50;0.47;;;34.20;35.80;;;;;;5015006;28;20439;-71
2022/07/09 07:56:08;;;;;;;1.30;1.20;;;34.60;34.10;;;;;;5015326;28;20164;-72
2022/07/09 07:58:35;;;;;;;0.50;0.50;;;35.30;33.30;;;;;;5014420;28;20422;-71
2022/07/09 08:01:01;;;;;;;2.20;0.90;;;35.50;33.40;;;;;;5014904;28;20186;-72
2022/07/09 08:03:27;;;;;;;0.40;0.40;;;35.80;32.80;;;;;;5014814;28;20490;-71
2022/07/09 08:05:52;;;;;;;0.70;0.53;;;35.90;33.60;;;;;;5014984;28;20569;-72
2022/07/09 08:08:18;;;;;;;0.50;0.50;;;36.20;33.30;;;;;;5014510;28;20195;-72
2022/07/09 08:10:45;;;;;;;0.50;0.50;;;35.90;30.00;;;;;;5014280;28;20192;-72
2022/07/09 08:13:11;;;;;;;0.40;0.40;;;35.40;30.30;;;;;;5013158;28;20175;-71
2022/07/09 08:15:37;;;;;;;0.40;0.40;;;34.60;30.60;;;;;;5012941;28;20409;-72
2022/07/09 08:18:04;;;;;;;1.33;0.83;;;34.10;32.90;;;;;;5012078;28;20434;-71
2022/07/09 08:20:30;;;;;;;1.60;1.50;;;33.30;33.80;;;;;;5013308;28;20461;-71
2022/07/09 08:22:55;;;;;;;2.97;1.60;;;32.70;36.10;;;;;;5014422;28;20816;-72
2022/07/09 08:25:21;;;;;;;0.60;0.40;;;32.70;34.40;;;;;;5013404;28;20191;-71
2022/07/09 08:27:49;;;;;;;0.40;0.40;;;32.70;36.20;;;;;;5011547;28;20199;-71
2022/07/09 08:30:14;;;;;;;0.53;0.43;;;32.20;33.90;;;;;;5013346;28;20195;-71
2022/07/09 08:32:40;;;;;;;0.40;0.40;;;31.80;34.00;;;;;;5014071;28;20437;-71
2022/07/09 08:35:06;;;;;;;0.60;0.60;;;32.50;34.90;;;;;;5012527;28;20195;-72
2022/07/09 08:37:32;;;;;;;0.90;0.90;;;33.30;34.30;;;;;;5013847;28;20215;-71
2022/07/09 08:39:57;;;;;;;1.43;0.47;;;33.80;35.50;;;;;;5013240;28;20406;-72
2022/07/09 08:42:23;;;;;;;0.40;0.33;;;34.10;33.30;;;;;;5013808;28;20186;-71
2022/07/09 08:44:49;;;;;;;0.40;0.30;;;34.00;32.60;;;;;;5012640;28;20179;-71
2022/07/09 08:47:15;;;;;;;0.53;0.43;;;33.30;32.50;;;;;;5012980;28;20195;-72
2022/07/09 08:49:42;;;;;;;0.40;0.40;;;32.50;32.90;;;;;;5012912;28;20194;-71
2022/07/09 08:52:08;;;;;;;0.40;0.40;;;31.70;36.20;;;;;;5014003;28;20484;-72
2022/07/09 08:54:39;;;;;;;0.50;0.50;;;32.10;34.10;;;;;;5013794;28;20418;-72
2022/07/09 08:57:05;;;;;;;0.70;0.50;;;32.70;32.90;;;;;;5012027;28;20429;-72
2022/07/09 08:59:32;;;;;;;0.50;0.50;;;33.50;34.00;;;;;;5013714;28;20745;-71
2022/07/09 09:01:57;;;;;;;0.43;0.43;;;34.20;31.40;;;;;;5013856;28;20462;-72
2022/07/09 09:04:24;;;;;;;0.50;0.50;;;34.80;32.50;;;;;;5012669;28;20894;-72
2022/07/09 09:06:50;;;;;;;0.50;0.50;;;35.70;31.90;;;;;;5013404;28;20588;-72
2022/07/09 09:09:19;;;;;;;0.50;0.50;;;35.40;30.70;;;;;;5012071;28;20806;-72
2022/07/09 09:11:49;;;;;;;0.40;0.40;;;35.00;30.40;;;;;;5013559;28;20457;-72
2022/07/09 09:14:22;;;;;;;0.60;0.40;;;34.80;30.00;;;;;;5013871;28;20454;-71
2022/07/09 09:16:48;;;;;;;0.80;0.40;;;34.50;30.80;;;;;;5013697;28;20485;-72
2022/07/09 09:19:14;;;;;;;0.40;0.40;;;34.80;32.10;;;;;;5012312;28;20882;-72
2022/07/09 09:21:39;;;;;;;0.40;0.40;;;35.50;30.60;;;;;;5013934;28;20403;-71
2022/07/09 09:24:06;;;;;;;0.50;0.50;;;36.10;31.00;;;;;;5017205;28;20171;-72
2022/07/09 09:26:35;;;;;;;1.23;0.83;;;36.90;31.20;;;;;;5016779;28;20179;-72
2022/07/09 09:29:03;;;;;;;0.70;0.40;;;35.70;30.00;;;;;;5016975;28;20500;-72
2022/07/09 09:31:35;;;;;;;0.40;0.40;;;35.10;31.30;;;;;;5016618;28;20509;-72
2022/07/09 09:34:09;;;;;;;0.40;0.40;;;34.60;33.10;;;;;;5015659;28;20418;-71
2022/07/09 09:36:43;;;;;;;0.40;0.30;;;34.90;33.10;;;;;;5017169;28;20401;-72
2022/07/09 09:39:09;;;;;;;0.47;0.47;;;35.40;31.60;;;;;;5017022;28;20501;-72
2022/07/09 09:41:35;;;;;;;0.60;0.60;;;35.30;29.60;;;;;;5017151;28;20402;-71
2022/07/09 09:44:05;;;;;;;0.40;0.30;;;35.00;30.20;;;;;;5017174;28;20409;-72
2022/07/09 09:46:36;;;;;;;0.50;0.50;;;34.60;29.80;;;;;;5015738;28;20179;-72
2022/07/09 09:49:05;;;;;;;0.40;0.40;;;34.70;31.10;;;;;;5016738;28;20480;-72
2022/07/09 09:51:33;;;;;;;1.63;0.80;;;35.00;33.10;;;;;;5016884;28;20822;-72
2022/07/09 09:54:01;;;;;;;0.33;0.30;;;35.50;32.10;;;;;;5017246;28;20950;-72
2022/07/09 09:56:28;;;;;;;0.50;0.40;;;35.70;31.80;;;;;;5016990;28;20438;-71
2022/07/09 09:58:55;;;;;;;0.40;0.40;;;35.50;30.00;;;;;;5016499;28;20430;-72
2022/07/09 10:01:21;;;;;;;0.40;0.40;;;34.90;31.70;;;;;;5016812;28;20509;-72
2022/07/09 10:03:48;;;;;;;0.40;0.30;;;34.10;31.70;;;;;;5016877;28;20448;-72
2022/07/09 10:06:14;;;;;;;0.40;0.40;;;33.80;33.40;;;;;;5016734;28;20435;-72
2022/07/09 10:08:39;;;;;;;0.40;0.40;;;34.00;33.30;;;;;;5016387;28;20838;-72
2022/07/09 10:11:05;;;;;;;0.40;0.40;;;33.80;35.70;;;;;;5016636;28;20542;-72
2022/07/09 10:13:31;;;;;;;0.40;0.40;;;34.00;34.10;;;;;;5016721;28;20163;-72
2022/07/09 10:15:58;;;;;;;0.40;0.40;;;33.90;32.40;;;;;;5016418;28;20411;-72
2022/07/09 10:18:23;;;;;;;0.43;0.43;;;33.60;33.60;;;;;;5016166;28;20217;-71
2022/07/09 10:20:56;;;;;;;0.70;0.70;;;32.90;34.50;;;;;;5016411;28;20497;-72
2022/07/09 10:23:23;;;;;;;0.60;0.40;;;32.20;35.80;;;;;;5016589;28;20565;-72
2022/07/09 10:25:55;;;;;;;1.67;0.60;;;32.00;37.20;;;;;;5016096;28;20910;-72
2022/07/09 10:28:22;;;;;;;0.70;0.60;;;32.10;36.50;;;;;;5016083;28;20979;-72
2022/07/09 10:30:48;;;;;;;0.40;0.40;;;32.00;34.90;;;;;;5016349;28;20446;-71
2022/07/09 10:33:35;;;;;;;0.40;0.40;;;31.70;37.10;;;;;;5015197;28;20431;-72
2022/07/09 10:36:11;;;;;;;0.40;0.40;;;31.50;35.00;;;;;;5016230;28;20484;-72
2022/07/09 10:38:38;;;;;;;0.50;0.50;;;31.50;36.20;;;;;;5015790;28;20414;-71
2022/07/09 10:41:05;;;;;;;0.40;0.40;;;31.70;35.60;;;;;;5015970;28;20410;-72
2022/07/09 10:43:44;;;;;;;0.40;0.40;;;31.50;34.50;;;;;;5015806;28;20406;-71
2022/07/09 10:46:12;;;;;;;0.40;0.40;;;31.60;35.80;;;;;;5016032;28;20407;-71
2022/07/09 10:48:38;;;;;;;1.00;0.90;;;31.50;38.30;;;;;;5015862;28;20465;-71
2022/07/09 10:51:04;;;;;;;0.50;0.40;;;31.60;34.40;;;;;;5015888;28;20449;-72
2022/07/09 10:53:30;;;;;;;0.47;0.47;;;31.70;35.70;;;;;;5015776;28;20461;-71
2022/07/09 10:55:56;;;;;;;0.40;0.40;;;31.70;37.00;;;;;;5015826;28;20398;-71
2022/07/09 10:58:24;;;;;;;0.60;0.50;;;31.10;36.20;;;;;;5014294;28;20429;-71
2022/07/09 11:00:57;;;;;;;0.60;0.50;;;30.60;37.30;;;;;;5015768;28;20417;-71
2022/07/09 11:03:27;;;;;;;0.40;0.40;;;29.50;40.20;;;;;;5015798;28;20421;-71
2022/07/09 11:05:53;;;;;;;0.37;0.33;;;28.30;41.90;;;;;;5015704;28;20395;-71
2022/07/09 11:08:18;;;;;;;0.40;0.30;;;27.40;40.40;;;;;;5015296;28;20981;-72
2022/07/09 11:10:44;;;;;;;0.70;0.70;;;27.10;44.00;;;;;;5015371;28;20509;-71
2022/07/09 11:13:10;;;;;;;0.63;0.63;;;27.10;42.00;;;;;;5015598;28;20172;-71
2022/07/09 11:15:38;;;;;;;0.40;0.40;;;27.50;43.40;;;;;;5015587;28;20198;-71
2022/07/09 11:18:13;;;;;;;0.40;0.40;;;27.40;41.70;;;;;;5015120;28;20206;-71
2022/07/09 11:20:39;;;;;;;0.43;0.43;;;27.50;41.30;;;;;;5015407;28;20402;-71
2022/07/09 11:23:06;;;;;;;0.40;0.40;;;27.30;42.50;;;;;;5015172;28;20406;-71
2022/07/09 11:25:32;;;;;;;0.50;0.50;;;27.30;45.40;;;;;;5015129;28;20914;-72
2022/07/09 11:27:58;;;;;;;0.30;0.30;;;27.10;42.20;;;;;;5014944;28;20496;-71
2022/07/09 11:30:26;;;;;;;0.50;0.50;;;26.90;43.50;;;;;;5015199;28;20190;-72
2022/07/09 11:32:51;;;;;;;0.40;0.40;;;26.80;42.00;;;;;;5015167;28;20433;-72
2022/07/09 11:35:25;;;;;;;0.50;0.50;;;26.70;43.20;;;;;;5014990;28;20435;-71
2022/07/09 11:37:51;;;;;;;0.50;0.50;;;26.60;42.90;;;;;;5013529;28;20409;-71
2022/07/09 11:40:20;;;;;;;0.30;0.30;;;26.50;43.30;;;;;;5015017;28;20461;-72
2022/07/09 11:42:46;;;;;;;0.30;0.30;;;26.80;42.70;;;;;;5015094;28;20431;-72
2022/07/09 11:45:12;;;;;;;0.60;0.53;;;26.70;44.50;;;;;;5013262;28;20406;-73
2022/07/09 11:47:40;;;;;;;0.30;0.30;;;26.90;44.00;;;;;;5013490;28;22179;-70
2022/07/09 11:50:14;;;;;;;0.40;0.40;;;27.20;46.50;;;;;;5014773;28;20246;-74
2022/07/09 11:52:48;;;;;;;0.50;0.50;;;27.50;42.70;;;;;;5015068;28;20794;-69
2022/07/09 11:55:19;;;;;;;0.53;0.53;;;27.50;42.50;;;;;;5014798;28;20433;-73
2022/07/09 11:57:54;;;;;;;0.50;0.37;;;27.80;42.30;;;;;;4996584;28;20799;-73
2022/07/09 12:00:27;;;;;;;0.33;0.33;;;27.70;47.70;;;;;;4995266;28;20407;-72
2022/07/09 12:02:55;;;;;;;0.30;0.30;;;27.40;42.70;;;;;;4995095;28;20408;-72
2022/07/09 12:05:39;;;;;;;1.43;0.60;;;27.20;44.90;;;;;;5007394;28;20461;-73
2022/07/09 12:08:08;;;;;;;0.40;0.40;;;27.20;46.10;;;;;;5012916;28;20463;-73
2022/07/09 12:10:36;;;;;;;0.50;0.50;;;27.20;43.20;;;;;;5014288;28;20458;-73
2022/07/09 12:13:04;;;;;;;0.40;0.40;;;27.20;43.40;;;;;;5013048;28;20406;-73
2022/07/09 12:15:33;;;;;;;0.60;0.60;;;27.10;44.90;;;;;;5014737;28;20482;-73
2022/07/09 12:18:00;;;;;;;0.97;0.70;;;26.90;44.90;;;;;;5013939;28;20426;-73
2022/07/09 12:20:32;;;;;;;0.40;0.40;;;26.70;44.20;;;;;;5014650;28;20417;-73
2022/07/09 12:22:58;;;;;;;0.40;0.40;;;26.50;46.50;;;;;;5013563;28;20411;-72
2022/07/09 12:25:24;;;;;;;0.50;0.47;;;26.30;50.40;;;;;;5011213;28;20792;-72
2022/07/09 12:27:50;;;;;;;0.30;0.30;;;26.00;46.70;;;;;;5012224;28;20432;-73
2022/07/09 12:30:17;;;;;;;0.30;0.30;;;25.50;46.70;;;;;;5012467;28;20406;-73
2022/07/09 12:32:43;;;;;;;0.50;0.40;;;25.50;49.10;;;;;;5011837;28;20179;-72
2022/07/09 12:35:09;;;;;;;0.50;0.50;;;25.60;49.40;;;;;;5013937;28;20421;-73
2022/07/09 12:37:37;;;;;;;0.30;0.30;;;26.00;47.70;;;;;;5013851;28;20427;-72
2022/07/09 12:40:04;;;;;;;0.40;0.40;;;26.40;45.70;;;;;;5014139;28;20486;-72
2022/07/09 12:42:29;;;;;;;0.50;0.50;;;26.60;45.90;;;;;;5013820;28;20406;-73
2022/07/09 12:44:55;;;;;;;0.60;0.60;;;26.60;45.80;;;;;;5013987;28;20411;-73
2022/07/09 12:47:21;;;;;;;0.40;0.40;;;26.40;46.50;;;;;;5013567;28;20186;-72
2022/07/09 12:49:46;;;;;;;0.30;0.30;;;26.40;47.20;;;;;;5012640;28;20180;-72
2022/07/09 12:52:12;;;;;;;0.40;0.40;;;26.00;47.80;;;;;;5013867;28;20694;-72
2022/07/09 12:54:38;;;;;;;0.40;0.40;;;25.90;46.40;;;;;;5013843;28;20175;-72